Time;durP1;ratioP1;P1;durP2;ratioP2;P2;SDS_P1;SDS_P2;PMS_P1;PMS_P2;Temp;Humidity;BMP_temperature;BMP_pressure;BME280_temperature;BME280_humidity;BME280_pressure;Samples;Min_cycle;Max_cycle;Signal;HPM_P1;HPM_P2
2022/04/24 00:02:00;;;;;;;;;14.00;9.00;;;;;14.19;58.38;99010.50;5037581;28;45666;-76
2022/04/24 00:04:25;;;;;;;;;14.50;7.75;;;;;14.20;58.58;99001.59;5057673;28;45340;-76
2022/04/24 00:06:52;;;;;;;;;11.00;8.00;;;;;14.21;58.76;99003.28;5058516;28;45332;-76
2022/04/24 00:09:18;;;;;;;;;8.75;6.75;;;;;14.22;58.30;99002.34;5056637;28;45445;-77
2022/04/24 00:11:43;;;;;;;;;7.00;2.25;;;;;14.22;58.57;99002.34;5055858;28;45562;-77
2022/04/24 00:14:10;;;;;;;;;13.25;8.00;;;;;14.19;58.45;98999.88;5055321;28;45500;-77
2022/04/24 00:16:39;;;;;;;;;10.00;8.00;;;;;14.16;58.13;99003.56;5054823;28;45567;-77
2022/04/24 00:19:06;;;;;;;;;11.00;11.00;;;;;14.16;58.30;99005.38;5070778;28;45501;-77
2022/04/24 00:21:31;;;;;;;;;10.25;10.00;;;;;14.13;58.33;98997.59;5075461;28;45288;-77
2022/04/24 00:23:57;;;;;;;;;9.50;7.75;;;;;14.11;58.56;99002.16;5090330;27;46266;-76
2022/04/24 00:26:23;;;;;;;;;7.25;7.25;;;;;14.06;58.47;98985.63;5094431;27;45351;-77
2022/04/24 00:28:48;;;;;;;;;6.00;6.00;;;;;14.10;58.58;98987.16;5077981;27;45661;-77
2022/04/24 00:31:14;;;;;;;;;10.00;10.00;;;;;14.05;58.83;98990.09;5096198;27;45476;-76
2022/04/24 00:33:39;;;;;;;;;8.50;8.50;;;;;14.02;58.65;98993.78;5095778;27;45703;-77
2022/04/24 00:36:05;;;;;;;;;13.50;11.25;;;;;14.00;58.79;98990.34;5097949;27;45410;-76
2022/04/24 00:38:35;;;;;;;;;12.25;8.00;;;;;13.96;59.04;98987.97;5061441;28;45447;-77
2022/04/24 00:41:00;;;;;;;;;4.00;2.00;;;;;13.99;58.98;98998.41;5075389;28;45491;-77
2022/04/24 00:43:26;;;;;;;;;11.00;9.00;;;;;13.93;59.54;98994.31;5082923;27;45390;-76
2022/04/24 00:46:22;;;;;;;;;8.50;8.50;;;;;13.94;59.53;98993.38;5096036;27;45326;-77
2022/04/24 00:48:47;;;;;;;;;13.50;10.25;;;;;13.88;60.03;98985.78;5091601;27;45493;-77
2022/04/24 00:51:13;;;;;;;;;10.25;9.00;;;;;13.80;59.98;98983.56;5074757;27;45589;-77
2022/04/24 00:53:38;;;;;;;;;10.75;8.00;;;;;13.75;60.36;98979.47;5056803;28;46306;-77
2022/04/24 00:56:05;;;;;;;;;13.00;9.50;;;;;13.76;60.32;98997.97;5074245;28;45414;-77
2022/04/24 00:58:32;;;;;;;;;8.00;8.00;;;;;13.72;60.28;98990.25;5074304;27;45599;-79
2022/04/24 01:00:58;;;;;;;;;12.00;11.25;;;;;13.67;60.55;98987.88;5075275;28;45457;-79
2022/04/24 01:03:23;;;;;;;;;13.75;13.75;;;;;13.66;61.24;98997.66;5095859;27;46313;-77
2022/04/24 01:05:49;;;;;;;;;8.25;7.00;;;;;13.57;61.55;98998.16;5097541;27;45508;-78
2022/04/24 01:08:14;;;;;;;;;16.75;13.75;;;;;13.45;62.08;99010.34;5097219;27;45363;-76
2022/04/24 01:10:40;;;;;;;;;8.50;8.50;;;;;13.37;62.00;99006.41;5093757;27;45309;-76
2022/04/24 01:13:06;;;;;;;;;13.00;10.50;;;;;13.30;62.52;99006.72;5095507;27;45349;-76
2022/04/24 01:15:33;;;;;;;;;15.00;12.75;;;;;13.18;61.98;99006.53;5095122;27;45338;-78
2022/04/24 01:17:59;;;;;;;;;15.50;11.25;;;;;13.12;62.24;99013.06;5094769;27;45375;-78
2022/04/24 01:20:25;;;;;;;;;13.50;11.50;;;;;13.10;62.57;99014.91;5078620;27;45537;-77
2022/04/24 01:22:50;;;;;;;;;18.00;13.00;;;;;13.11;62.45;99019.28;5074167;28;46217;-78
2022/04/24 01:25:16;;;;;;;;;12.50;10.75;;;;;13.06;62.60;99024.84;5074527;28;45506;-80
2022/04/24 01:27:41;;;;;;;;;1.75;1.75;;;;;13.05;62.69;99019.63;5074816;28;45608;-78
2022/04/24 01:30:08;;;;;;;;;10.50;10.50;;;;;12.97;62.82;99020.91;5075077;27;45562;-78
2022/04/24 01:32:40;;;;;;;;;12.00;10.25;;;;;12.92;62.90;99019.44;5075380;27;45506;-77
2022/04/24 01:35:07;;;;;;;;;16.25;13.00;;;;;12.85;62.59;99026.88;5078134;27;45372;-76
2022/04/24 01:37:33;;;;;;;;;16.25;16.00;;;;;12.83;63.15;99023.44;5077197;28;45431;-77
2022/04/24 01:39:58;;;;;;;;;14.00;12.50;;;;;12.79;63.34;99033.34;5073837;27;45606;-77
2022/04/24 01:42:24;;;;;;;;;13.50;10.00;;;;;12.73;63.01;99032.84;5074804;28;46267;-76
2022/04/24 01:44:50;;;;;;;;;10.75;10.25;;;;;12.69;63.28;99036.56;5075269;27;45341;-75
2022/04/24 01:47:15;;;;;;;;;13.75;11.25;;;;;12.67;63.70;99033.16;5094444;27;45292;-76
2022/04/24 01:49:41;;;;;;;;;10.00;7.00;;;;;12.64;63.58;99038.63;5094476;27;45324;-77
2022/04/24 01:52:06;;;;;;;;;16.00;11.25;;;;;12.62;63.49;99036.91;5074305;27;45415;-77
2022/04/24 01:54:32;;;;;;;;;14.00;12.00;;;;;12.58;63.62;99040.63;5093524;27;45399;-76
2022/04/24 01:56:57;;;;;;;;;9.50;7.25;;;;;12.55;63.95;99050.56;5095439;27;45464;-76
2022/04/24 01:59:23;;;;;;;;;10.50;10.50;;;;;12.50;63.72;99045.50;5094821;27;45502;-77
2022/04/24 02:01:49;;;;;;;;;10.50;10.50;;;;;12.51;63.53;99046.34;5083045;27;45909;-77
2022/04/24 02:04:18;;;;;;;;;14.50;10.50;;;;;12.52;63.75;99048.06;5074524;28;45462;-76
2022/04/24 02:06:44;;;;;;;;;15.75;14.00;;;;;12.52;63.91;99051.56;5077445;28;45399;-77
2022/04/24 02:09:09;;;;;;;;;12.75;11.75;;;;;12.47;63.92;99035.06;5057049;28;45622;-77
2022/04/24 02:11:35;;;;;;;;;9.50;9.50;;;;;12.51;63.48;99049.88;5074292;27;45473;-77
2022/04/24 02:14:00;;;;;;;;;13.25;11.00;;;;;12.52;63.54;99050.72;5074244;28;45518;-76
2022/04/24 02:16:25;;;;;;;;;12.00;12.00;;;;;12.53;63.46;99058.59;5073566;28;45422;-76
2022/04/24 02:18:51;;;;;;;;;11.00;10.00;;;;;12.53;63.40;99049.78;5074167;28;45377;-77
2022/04/24 02:21:16;;;;;;;;;10.00;9.00;;;;;12.52;62.88;99058.66;5073046;27;46326;-75
2022/04/24 02:23:42;;;;;;;;;12.50;10.75;;;;;12.50;63.49;99064.03;5074354;27;45415;-77
2022/04/24 02:26:07;;;;;;;;;20.75;17.75;;;;;12.46;63.52;99066.94;5073635;28;45359;-77
2022/04/24 02:28:32;;;;;;;;;9.75;9.00;;;;;12.43;63.30;99062.63;5055452;28;45546;-76
2022/04/24 02:30:58;;;;;;;;;9.50;9.50;;;;;12.40;63.15;99062.81;5076146;27;45418;-77
2022/04/24 02:33:23;;;;;;;;;9.25;9.25;;;;;12.37;63.42;99068.25;5094551;27;45271;-77
2022/04/24 02:35:49;;;;;;;;;15.00;9.50;;;;;12.34;62.71;99057.81;5098898;27;45410;-77
2022/04/24 02:38:15;;;;;;;;;15.50;9.75;;;;;12.32;62.96;99062.34;5095991;27;45394;-76
2022/04/24 02:40:40;;;;;;;;;13.50;12.00;;;;;12.26;62.88;99060.88;5093468;27;45599;-77
2022/04/24 02:43:05;;;;;;;;;12.00;10.00;;;;;12.26;62.86;99066.16;5078338;27;45530;-76
2022/04/24 02:45:31;;;;;;;;;14.50;11.00;;;;;12.29;63.23;99071.31;5084234;27;45378;-75
2022/04/24 02:47:56;;;;;;;;;10.75;9.50;;;;;12.25;62.81;99073.25;5074010;28;45554;-77
2022/04/24 02:50:23;;;;;;;;;8.50;7.50;;;;;12.23;63.30;99061.88;5076174;28;45409;-77
2022/04/24 02:52:51;;;;;;;;;10.25;6.00;;;;;12.20;62.78;99056.72;5076745;27;45413;-76
2022/04/24 02:55:17;;;;;;;;;15.75;12.00;;;;;12.19;63.13;99076.22;5076789;28;45280;-76
2022/04/24 02:57:44;;;;;;;;;8.00;8.00;;;;;12.17;63.22;99082.53;5076514;28;45581;-77
2022/04/24 03:00:11;;;;;;;;;14.25;11.25;;;;;12.12;63.16;99077.44;5077154;28;45443;-77
2022/04/24 03:02:44;;;;;;;;;14.25;9.25;;;;;12.12;63.05;99090.69;5076615;27;45474;-76
2022/04/24 03:05:11;;;;;;;;;14.25;10.00;;;;;12.09;63.09;99078.47;5081714;27;45480;-75
2022/04/24 03:07:36;;;;;;;;;9.75;9.75;;;;;12.09;63.08;99085.56;5079784;28;45424;-77
2022/04/24 03:10:02;;;;;;;;;14.00;13.00;;;;;12.06;62.92;99081.25;5078315;28;46327;-76
2022/04/24 03:12:29;;;;;;;;;14.00;10.00;;;;;12.05;63.03;99082.19;5077000;28;45362;-77
2022/04/24 03:14:55;;;;;;;;;10.25;7.75;;;;;12.05;62.97;99089.28;5057990;28;45441;-78
2022/04/24 03:17:20;;;;;;;;;14.75;11.50;;;;;11.99;62.85;99079.84;5076847;28;45387;-77
2022/04/24 03:19:46;;;;;;;;;13.75;9.25;;;;;11.97;62.79;99079.06;5075614;28;52692;-76
2022/04/24 03:22:11;;;;;;;;;10.00;10.00;;;;;11.95;62.73;99088.88;5076439;28;45315;-76
2022/04/24 03:24:36;;;;;;;;;11.50;11.50;;;;;11.97;62.52;99086.16;5075488;27;45485;-76
2022/04/24 03:27:03;;;;;;;;;11.50;6.25;;;;;11.95;62.64;99093.31;5076608;28;45450;-76
2022/04/24 03:29:29;;;;;;;;;13.00;10.25;;;;;11.94;63.07;99084.50;5076974;28;45916;-75
2022/04/24 03:31:54;;;;;;;;;10.50;10.50;;;;;11.90;63.23;99083.78;5076397;28;45502;-76
2022/04/24 03:34:20;;;;;;;;;12.75;10.75;;;;;11.94;63.04;99091.59;5078591;27;45431;-77
2022/04/24 03:36:46;;;;;;;;;13.25;8.50;;;;;11.93;62.87;99095.19;5102369;27;45373;-77
2022/04/24 03:39:12;;;;;;;;;15.50;13.00;;;;;11.88;63.12;99093.56;5096991;27;45541;-76
2022/04/24 03:41:38;;;;;;;;;13.00;10.00;;;;;11.86;63.48;99099.91;5078446;27;45490;-76
2022/04/24 03:44:04;;;;;;;;;9.50;9.50;;;;;11.87;63.11;99102.47;5084641;27;45526;-78
2022/04/24 03:46:30;;;;;;;;;18.50;10.50;;;;;11.89;62.75;99108.53;5076231;28;45474;-77
2022/04/24 03:48:55;;;;;;;;;14.00;13.00;;;;;11.88;63.37;99108.63;5076201;28;45394;-75
2022/04/24 03:51:21;;;;;;;;;12.00;11.00;;;;;11.87;62.97;99113.06;5076018;28;45417;-76
2022/04/24 03:53:46;;;;;;;;;11.50;9.50;;;;;11.85;62.63;99103.47;5076124;28;45371;-77
2022/04/24 03:56:12;;;;;;;;;10.25;9.25;;;;;11.85;63.04;99106.97;5084800;27;45316;-77
2022/04/24 03:58:37;;;;;;;;;10.25;10.25;;;;;11.84;62.91;99102.63;5096253;27;46267;-76
2022/04/24 04:01:02;;;;;;;;;10.75;10.75;;;;;11.84;63.15;99107.03;5079386;27;46110;-77
2022/04/24 04:03:28;;;;;;;;;11.75;10.00;;;;;11.84;63.09;99105.25;5099203;27;45337;-78
2022/04/24 04:05:53;;;;;;;;;12.75;8.50;;;;;11.79;63.21;99096.66;5089615;27;45481;-76
2022/04/24 04:08:18;;;;;;;;;5.50;5.00;;;;;11.81;63.04;99105.41;5076137;28;45593;-76
2022/04/24 04:10:44;;;;;;;;;7.75;6.00;;;;;11.82;62.90;99109.75;5076300;28;45805;-76
2022/04/24 04:13:09;;;;;;;;;16.00;11.00;;;;;11.77;63.07;99105.59;5075561;28;45430;-77
2022/04/24 04:15:35;;;;;;;;;11.00;9.25;;;;;11.78;62.94;99118.81;5074980;27;45454;-76
2022/04/24 04:18:01;;;;;;;;;13.50;13.50;;;;;11.77;63.21;99111.78;5075451;28;46210;-76
2022/04/24 04:20:26;;;;;;;;;10.75;9.50;;;;;11.73;63.10;99116.34;5075478;28;45408;-76
2022/04/24 04:22:52;;;;;;;;;15.00;13.00;;;;;11.65;63.22;99112.38;5057178;28;45754;-78
2022/04/24 04:25:19;;;;;;;;;14.00;13.00;;;;;11.68;63.31;99123.66;5082874;27;45352;-77
2022/04/24 04:27:44;;;;;;;;;12.75;12.75;;;;;11.70;62.96;99121.78;5074807;28;45405;-77
2022/04/24 04:30:10;;;;;;;;;16.00;13.00;;;;;11.69;63.49;99121.84;5057194;28;45423;-76
2022/04/24 04:32:36;;;;;;;;;18.50;15.75;;;;;11.68;63.06;99125.47;5078176;28;45349;-77
2022/04/24 04:35:02;;;;;;;;;18.75;14.50;;;;;11.68;63.23;99122.81;5079298;28;45488;-77
2022/04/24 04:37:28;;;;;;;;;16.00;14.25;;;;;11.68;62.80;99126.31;5076804;27;46237;-76
2022/04/24 04:39:53;;;;;;;;;13.50;12.75;;;;;11.69;63.16;99124.50;5056512;28;45474;-77
2022/04/24 04:42:19;;;;;;;;;14.00;10.50;;;;;11.68;63.11;99126.31;5075449;28;45380;-77
2022/04/24 04:44:44;;;;;;;;;13.25;11.25;;;;;11.70;63.24;99128.88;5094878;27;45630;-77
2022/04/24 04:47:09;;;;;;;;;13.75;12.00;;;;;11.68;63.21;99128.94;5079456;27;45544;-76
2022/04/24 04:49:35;;;;;;;;;14.25;11.25;;;;;11.73;62.62;99137.53;5075201;28;45573;-77
2022/04/24 04:52:00;;;;;;;;;17.75;13.00;;;;;11.73;62.52;99134.03;5075523;28;45566;-77
2022/04/24 04:54:26;;;;;;;;;12.00;11.00;;;;;11.74;62.98;99139.25;5074414;28;45363;-77
2022/04/24 04:56:51;;;;;;;;;17.25;11.25;;;;;11.78;62.91;99139.97;5074063;28;45512;-77
2022/04/24 04:59:16;;;;;;;;;16.00;16.00;;;;;11.81;62.65;99145.13;5074947;27;45492;-77
2022/04/24 05:01:42;;;;;;;;;15.25;15.25;;;;;11.79;62.71;99144.31;5075195;28;45719;-76
2022/04/24 05:04:07;;;;;;;;;13.50;10.75;;;;;11.88;62.63;99143.88;5077059;28;45312;-77
2022/04/24 05:06:32;;;;;;;;;13.75;13.00;;;;;12.00;62.27;99160.16;5077319;28;45358;-77
2022/04/24 05:08:58;;;;;;;;;17.25;11.50;;;;;12.18;61.77;99161.91;5074394;27;45573;-77
2022/04/24 05:11:23;;;;;;;;;13.50;10.00;;;;;12.45;61.51;99161.47;5100971;27;45369;-79
2022/04/24 05:13:48;;;;;;;;;12.75;12.75;;;;;12.73;60.74;99160.06;5105789;27;45521;-80
2022/04/24 05:16:14;;;;;;;;;18.75;14.00;;;;;12.99;60.24;99166.66;5097735;27;45490;-79
2022/04/24 05:18:39;;;;;;;;;12.25;11.25;;;;;13.25;59.29;99161.78;5088553;27;45531;-79
2022/04/24 05:21:04;;;;;;;;;23.25;12.50;;;;;13.56;58.73;99161.03;5087362;27;45482;-80
2022/04/24 05:23:30;;;;;;;;;16.00;12.50;;;;;13.95;57.53;99172.19;5097135;27;45264;-79
2022/04/24 05:25:55;;;;;;;;;10.00;10.00;;;;;14.31;56.67;99176.34;5096273;27;45317;-78
2022/04/24 05:28:20;;;;;;;;;19.50;14.25;;;;;14.70;55.92;99173.19;5094813;27;45566;-79
2022/04/24 05:30:46;;;;;;;;;12.00;12.00;;;;;15.07;54.30;99170.97;5098238;27;45465;-79
2022/04/24 05:33:17;;;;;;;;;18.50;16.50;;;;;15.45;53.60;99178.41;5097809;27;45474;-78
2022/04/24 05:35:42;;;;;;;;;10.25;7.00;;;;;15.92;52.40;99175.53;5102534;27;46115;-79
2022/04/24 05:38:08;;;;;;;;;16.00;11.25;;;;;16.29;51.90;99182.03;5092986;27;45519;-81
2022/04/24 05:40:33;;;;;;;;;14.25;11.00;;;;;16.72;51.52;99186.31;5074496;28;45660;-81
2022/04/24 05:42:58;;;;;;;;;12.75;10.50;;;;;17.09;50.67;99172.28;5074921;27;45440;-80
2022/04/24 05:45:27;;;;;;;;;15.50;12.50;;;;;17.42;49.96;99185.09;5076848;28;45586;-79
2022/04/24 05:47:54;;;;;;;;;19.00;14.00;;;;;17.76;48.75;99180.91;5076857;27;45321;-78
2022/04/24 05:50:20;;;;;;;;;17.00;15.00;;;;;18.01;48.31;99176.47;5076217;27;45396;-79
2022/04/24 05:52:46;;;;;;;;;17.00;12.25;;;;;18.41;47.67;99167.31;5076122;28;45367;-80
2022/04/24 05:55:11;;;;;;;;;15.50;14.25;;;;;18.81;46.27;99164.28;5074842;28;45490;-80
2022/04/24 05:57:37;;;;;;;;;18.00;13.00;;;;;19.16;45.07;99177.69;5074266;27;45359;-80
2022/04/24 06:00:12;;;;;;;;;9.00;8.00;;;;;19.51;44.30;99182.09;5056734;28;45390;-81
2022/04/24 06:02:37;;;;;;;;;14.75;12.25;;;;;19.73;43.51;99182.22;5056890;28;45275;-79
2022/04/24 06:05:03;;;;;;;;;16.00;15.00;;;;;19.99;42.57;99178.31;5095350;27;45362;-80
2022/04/24 06:07:28;;;;;;;;;19.00;18.00;;;;;20.14;41.94;99172.69;5092801;27;45543;-80
2022/04/24 06:09:54;;;;;;;;;15.75;14.25;;;;;20.34;41.54;99193.34;5074888;28;45730;-81
2022/04/24 06:12:19;;;;;;;;;18.75;16.50;;;;;20.61;41.05;99181.31;5075309;28;45308;-80
2022/04/24 06:14:44;;;;;;;;;18.25;15.25;;;;;20.99;40.33;99185.28;5074888;28;46056;-79
2022/04/24 06:17:10;;;;;;;;;18.25;15.00;;;;;21.29;39.73;99195.22;5057189;27;45520;-81
2022/04/24 06:19:35;;;;;;;;;19.50;15.00;;;;;21.76;38.69;99193.94;5094924;27;45421;-81
2022/04/24 06:22:01;;;;;;;;;14.00;12.25;;;;;21.93;37.96;99197.81;5078604;27;45635;-80
2022/04/24 06:24:26;;;;;;;;;15.50;12.00;;;;;21.83;37.87;99195.94;5099793;27;45422;-79
2022/04/24 06:26:52;;;;;;;;;18.00;14.75;;;;;21.92;37.72;99194.25;5099665;27;45290;-79
2022/04/24 06:29:17;;;;;;;;;17.50;16.25;;;;;22.13;37.44;99188.78;5078883;27;45289;-79
2022/04/24 06:31:42;;;;;;;;;13.25;12.25;;;;;22.32;36.84;99195.25;5078063;28;45269;-79
2022/04/24 06:34:08;;;;;;;;;18.25;17.00;;;;;22.48;36.90;99206.28;5080745;28;45392;-78
2022/04/24 06:36:34;;;;;;;;;15.50;13.50;;;;;22.71;36.27;99214.09;5082869;28;45324;-80
2022/04/24 06:39:00;;;;;;;;;16.75;16.75;;;;;23.01;35.67;99210.41;5079113;27;45353;-80
2022/04/24 06:41:26;;;;;;;;;15.00;13.75;;;;;23.14;35.47;99210.16;5077577;28;45467;-79
2022/04/24 06:43:51;;;;;;;;;22.50;19.75;;;;;23.34;34.76;99204.72;5089177;27;45470;-79
2022/04/24 06:46:18;;;;;;;;;17.00;16.00;;;;;23.70;34.50;99205.75;5098967;27;59276;-80
2022/04/24 06:48:44;;;;;;;;;17.25;16.50;;;;;23.71;34.23;99210.13;5085227;27;45464;-79
2022/04/24 06:51:09;;;;;;;;;16.25;14.50;;;;;23.74;33.99;99200.88;5069177;27;45528;-78
2022/04/24 06:53:37;;;;;;;;;17.50;12.25;;;;;23.52;33.69;99202.97;5098619;27;45425;-80
2022/04/24 06:56:04;;;;;;;;;17.25;14.75;;;;;23.16;34.41;99210.84;5097884;27;45353;-80
2022/04/24 06:58:29;;;;;;;;;18.00;17.75;;;;;23.22;34.12;99218.34;5079498;27;45376;-76
2022/04/24 07:00:56;;;;;;;;;17.75;16.00;;;;;23.24;34.24;99205.59;5099578;27;45472;-80
2022/04/24 07:03:23;;;;;;;;;21.00;16.75;;;;;23.54;34.31;99211.75;5100749;27;46558;-79
2022/04/24 07:05:49;;;;;;;;;22.00;18.50;;;;;23.65;33.73;99223.34;5104540;27;45389;-79
2022/04/24 07:08:16;;;;;;;;;21.00;21.00;;;;;23.74;33.70;99222.47;5098970;27;45363;-79
2022/04/24 07:10:41;;;;;;;;;21.75;21.50;;;;;23.83;32.92;99213.47;5098744;27;45509;-81
2022/04/24 07:13:08;;;;;;;;;28.75;21.00;;;;;23.49;32.76;99202.38;5097692;27;45372;-80
2022/04/24 07:15:35;;;;;;;;;23.75;20.75;;;;;23.47;33.25;99221.41;5098645;27;45441;-81
2022/04/24 07:18:02;;;;;;;;;25.75;22.00;;;;;23.66;33.12;99220.50;5098856;27;45387;-80
2022/04/24 07:20:29;;;;;;;;;18.75;13.00;;;;;23.67;32.88;99224.91;5077305;28;45598;-79
2022/04/24 07:23:03;;;;;;;;;24.25;21.25;;;;;23.74;32.87;99227.84;5080100;28;46388;-80
2022/04/24 07:25:33;;;;;;;;;21.00;19.00;;;;;23.70;33.43;99223.75;5078975;28;45323;-79
2022/04/24 07:27:58;;;;;;;;;28.50;22.75;;;;;23.96;32.75;99232.06;5079470;27;45483;-80
2022/04/24 07:30:25;;;;;;;;;28.00;24.00;;;;;24.28;32.37;99226.19;5078031;28;45363;-79
2022/04/24 07:32:55;;;;;;;;;26.50;24.25;;;;;24.39;31.84;99224.31;5078023;28;46220;-80
2022/04/24 07:35:30;;;;;;;;;32.50;32.00;;;;;24.83;31.53;99232.53;5080525;27;45443;-79
2022/04/24 07:37:55;;;;;;;;;22.75;21.00;;;;;25.18;30.91;99238.91;5061813;27;45349;-79
2022/04/24 07:40:23;;;;;;;;;27.00;21.75;;;;;25.56;30.96;99242.25;5097353;27;45409;-80
2022/04/24 07:42:54;;;;;;;;;27.75;27.75;;;;;25.87;29.78;99239.88;5097096;27;45286;-80
2022/04/24 07:45:21;;;;;;;;;15.00;10.00;;;;;26.25;29.89;99244.97;5078971;27;45769;-76
2022/04/24 07:47:47;;;;;;;;;27.25;24.50;;;;;26.22;29.40;99237.16;5094171;27;45369;-80
2022/04/24 07:50:18;;;;;;;;;25.00;21.75;;;;;26.31;29.16;99246.16;5101426;27;45432;-78
2022/04/24 07:52:44;;;;;;;;;24.25;22.25;;;;;26.59;29.13;99246.75;5100271;27;46139;-81
2022/04/24 07:55:19;;;;;;;;;28.75;27.50;;;;;26.88;28.67;99238.19;5097995;27;45761;-80
2022/04/24 07:57:49;;;;;;;;;26.50;21.50;;;;;27.27;28.60;99245.66;5093945;27;45667;-81
2022/04/24 08:00:17;;;;;;;;;27.25;24.50;;;;;27.55;27.67;99247.16;5076818;27;45663;-80
2022/04/24 08:02:47;;;;;;;;;28.00;25.00;;;;;27.33;27.86;99240.59;5085196;27;46061;-80
2022/04/24 08:05:24;;;;;;;;;26.25;22.50;;;;;27.54;28.03;99242.75;5089803;27;45384;-80
2022/04/24 08:07:50;;;;;;;;;32.25;22.25;;;;;27.86;27.34;99252.66;5083636;27;45401;-80
2022/04/24 08:10:16;;;;;;;;;23.25;20.75;;;;;27.76;27.05;99244.75;5092264;27;45800;-80
2022/04/24 08:12:41;;;;;;;;;22.25;19.75;;;;;27.47;27.42;99248.03;5082097;27;46110;-82
2022/04/24 08:15:07;;;;;;;;;25.00;23.25;;;;;27.17;27.52;99252.28;5081813;27;46616;-81
2022/04/24 08:17:33;;;;;;;;;27.25;25.25;;;;;27.11;28.20;99251.91;5065784;27;45541;-80
2022/04/24 08:19:58;;;;;;;;;27.50;24.25;;;;;26.87;28.13;99262.75;5085678;27;45483;-80
2022/04/24 08:22:23;;;;;;;;;23.75;20.50;;;;;26.77;28.43;99258.34;5080255;27;45490;-76
2022/04/24 08:24:49;;;;;;;;;27.75;24.00;;;;;26.45;28.56;99267.22;5081818;27;45441;-80
2022/04/24 08:27:15;;;;;;;;;37.25;28.25;;;;;26.35;28.93;99270.03;5066923;27;45414;-77
2022/04/24 08:29:40;;;;;;;;;26.75;25.50;;;;;26.14;29.25;99266.94;5083733;27;45265;-76
2022/04/24 08:32:06;;;;;;;;;21.50;19.75;;;;;25.84;29.20;99271.81;5083624;27;46403;-81
2022/04/24 08:34:32;;;;;;;;;26.50;24.75;;;;;25.41;30.38;99279.81;5069042;27;45442;-77
2022/04/24 08:36:58;;;;;;;;;24.75;22.25;;;;;25.30;30.53;99275.53;5053128;27;45458;-77
2022/04/24 08:39:23;;;;;;;;;38.50;32.75;;;;;25.79;30.07;99268.75;5078326;27;45564;-81
2022/04/24 08:41:49;;;;;;;;;23.50;22.00;;;;;26.07;29.67;99272.16;5082255;27;45992;-81
2022/04/24 08:44:15;;;;;;;;;29.25;25.25;;;;;26.16;28.97;99248.66;5085915;27;45386;-80
2022/04/24 08:46:43;;;;;;;;;26.25;22.50;;;;;25.66;29.24;99270.03;5085916;27;45456;-82
2022/04/24 08:49:10;;;;;;;;;21.50;17.25;;;;;25.41;29.72;99270.88;5069537;28;45489;-82
2022/04/24 08:51:38;;;;;;;;;21.25;19.50;;;;;25.38;30.26;99272.03;5093905;27;46847;-79
2022/04/24 08:54:03;;;;;;;;;29.75;23.50;;;;;25.77;30.59;99273.47;5072623;28;45326;-79
2022/04/24 08:56:30;;;;;;;;;33.00;29.00;;;;;26.07;29.61;99277.56;5075085;27;45434;-81
2022/04/24 08:58:56;;;;;;;;;28.25;23.50;;;;;26.14;29.31;99284.00;5080545;27;45474;-82
2022/04/24 09:01:21;;;;;;;;;34.00;28.25;;;;;26.11;28.96;99278.06;5078111;27;45510;-82
2022/04/24 09:03:47;;;;;;;;;28.25;22.75;;;;;25.97;28.89;99276.78;5089032;27;45456;-80
2022/04/24 09:06:22;;;;;;;;;40.25;34.75;;;;;25.94;29.07;99280.66;5086465;27;45561;-80
2022/04/24 09:08:47;;;;;;;;;27.00;25.25;;;;;26.24;29.07;99281.19;5082963;27;45531;-80
2022/04/24 09:11:13;;;;;;;;;24.25;23.25;;;;;26.09;29.17;99283.66;5064092;27;46040;-78
2022/04/24 09:16:38;;;;;;;;;27.25;24.75;;;;;26.65;28.38;99281.31;5078830;27;45584;-77
2022/04/24 09:19:17;;;;;;;;;28.00;28.00;;;;;26.87;28.13;99273.59;5081073;27;45498;-77
2022/04/24 09:21:44;;;;;;;;;24.25;22.00;;;;;26.98;28.23;99292.25;5087034;27;46154;-77
2022/04/24 09:24:10;;;;;;;;;29.75;23.50;;;;;26.88;28.12;99286.13;5082058;27;45507;-78
2022/04/24 09:26:35;;;;;;;;;31.00;28.00;;;;;26.47;28.56;99294.97;5081431;27;45554;-77
2022/04/24 09:29:00;;;;;;;;;27.50;23.25;;;;;25.89;28.86;99297.38;5081586;27;45319;-79
2022/04/24 09:31:29;;;;;;;;;22.50;18.50;;;;;24.94;30.10;99291.72;5089147;27;45975;-78
2022/04/24 09:33:54;;;;;;;;;33.75;28.75;;;;;24.35;31.31;99301.19;5087306;27;45413;-79
2022/04/24 09:36:24;;;;;;;;;29.00;24.25;;;;;23.83;31.70;99302.50;5076991;27;45512;-78
2022/04/24 09:38:50;;;;;;;;;28.25;27.50;;;;;23.55;32.63;99304.25;5085064;27;45578;-79
2022/04/24 09:41:20;;;;;;;;;26.75;21.25;;;;;23.87;32.69;99303.94;5075658;27;46239;-78
2022/04/24 09:43:46;;;;;;;;;29.50;23.00;;;;;24.37;31.71;99304.56;5084243;27;45453;-78
2022/04/24 09:46:12;;;;;;;;;21.50;13.25;;;;;24.40;31.36;99299.75;5080472;27;45592;-78
2022/04/24 09:48:37;;;;;;;;;30.25;25.75;;;;;24.33;31.32;99308.59;5082503;27;45519;-77
2022/04/24 09:51:03;;;;;;;;;31.25;29.50;;;;;24.10;31.24;99304.41;5106587;27;45551;-78
2022/04/24 09:53:30;;;;;;;;;21.00;19.00;;;;;23.85;31.48;99308.59;5085904;27;45519;-78
2022/04/24 09:55:58;;;;;;;;;27.25;21.50;;;;;23.72;31.89;99311.59;5083882;27;45628;-79
2022/04/24 09:58:25;;;;;;;;;22.00;18.00;;;;;23.85;31.64;99322.09;5084400;27;45390;-76
2022/04/24 10:00:51;;;;;;;;;23.75;21.50;;;;;24.53;31.87;99320.97;5095840;27;46355;-78
2022/04/24 10:03:19;;;;;;;;;23.50;16.75;;;;;24.71;30.55;99317.50;5087505;27;45513;-78
2022/04/24 10:05:47;;;;;;;;;30.50;24.00;;;;;24.42;31.23;99326.59;5089928;27;45489;-78
2022/04/24 10:08:14;;;;;;;;;35.00;33.50;;;;;24.69;30.67;99314.94;5066088;27;45669;-77
2022/04/24 10:10:39;;;;;;;;;29.25;24.75;;;;;25.30;30.58;99324.19;5076848;27;45487;-78
2022/04/24 10:13:08;;;;;;;;;29.75;27.50;;;;;25.59;29.17;99323.06;5085472;27;45484;-78
2022/04/24 10:15:37;;;;;;;;;18.50;17.00;;;;;25.43;29.33;99325.63;5087698;27;45453;-77
2022/04/24 10:18:35;;;;;;;;;14.75;6.50;;;;;25.19;29.57;99329.81;5061685;28;45561;-78
2022/04/24 10:21:09;;;;;;;;;26.25;20.25;;;;;24.84;29.92;99336.91;5088627;27;45567;-78
2022/04/24 10:23:38;;;;;;;;;28.75;23.50;;;;;24.70;30.73;99337.41;5062946;28;45469;-78
2022/04/24 10:26:19;;;;;;;;;31.25;27.75;;;;;24.37;30.33;99345.06;5090038;27;45544;-79
2022/04/24 10:28:46;;;;;;;;;20.75;17.00;;;;;24.15;30.88;99351.72;5081380;27;45374;-78
2022/04/24 10:31:12;;;;;;;;;26.50;22.75;;;;;24.25;30.61;99352.53;5089161;27;45496;-78
2022/04/24 10:33:40;;;;;;;;;20.75;19.50;;;;;24.60;30.68;99351.81;5083440;27;45850;-77
2022/04/24 10:36:25;;;;;;;;;24.00;17.50;;;;;25.03;31.34;99359.38;5071970;27;45536;-77
2022/04/24 10:38:53;;;;;;;;;26.50;25.50;;;;;25.11;29.92;99354.91;4989414;28;45639;-81
2022/04/24 10:41:23;;;;;;;;;24.75;22.00;;;;;24.94;30.73;99366.53;4994895;28;46158;-80
2022/04/24 10:43:53;;;;;;;;;26.50;19.75;;;;;25.25;30.73;99367.03;4988509;28;45476;-78
2022/04/24 10:46:26;;;;;;;;;25.00;20.50;;;;;25.61;32.93;99363.47;4981030;28;45662;-85
2022/04/24 10:48:52;;;;;;;;;26.75;24.75;;;;;25.73;29.62;99364.06;4976487;28;45454;-77
2022/04/24 10:51:29;;;;;;;;;22.00;20.25;;;;;25.99;30.56;99383.88;4985586;28;45490;-77
2022/04/24 10:54:05;;;;;;;;;29.00;25.50;;;;;26.37;29.66;99367.38;4982106;28;45540;-76
2022/04/24 10:56:32;;;;;;;;;16.00;14.50;;;;;26.80;28.67;99373.69;4987679;28;45550;-75
2022/04/24 10:59:19;;;;;;;;;30.75;28.25;;;;;26.99;28.69;99380.66;4974562;28;45475;-78
2022/04/24 11:01:48;;;;;;;;;27.50;24.00;;;;;27.42;28.29;99370.59;4988442;28;46448;-79
2022/04/24 11:04:16;;;;;;;;;25.00;20.25;;;;;27.81;28.29;99367.19;4979770;28;45579;-79
2022/04/24 11:06:55;;;;;;;;;20.50;20.50;;;;;27.83;28.46;99375.16;4993580;28;45598;-77
2022/04/24 11:09:22;;;;;;;;;25.50;22.50;;;;;27.79;27.52;99377.38;4982358;28;45666;-76
2022/04/24 11:11:54;;;;;;;;;24.25;21.50;;;;;27.80;27.72;99373.66;4976152;28;45513;-79
2022/04/24 11:14:22;;;;;;;;;20.75;20.00;;;;;27.37;27.93;99391.94;4969366;28;45526;-76
2022/04/24 11:16:53;;;;;;;;;22.50;18.25;;;;;26.92;28.30;99382.31;5070751;27;45455;-79
2022/04/24 11:19:25;;;;;;;;;24.75;20.00;;;;;26.50;29.20;99386.72;5073626;28;45335;-75
2022/04/24 11:22:02;;;;;;;;;28.00;21.75;;;;;26.14;29.50;99396.84;5077518;27;46105;-78